createdAt,value
2023-06-24T00:02:25.327Z,38.56
2023-06-24T00:04:53.126Z,38.61
2023-06-24T00:07:23.364Z,38.45
2023-06-24T00:09:50.271Z,38.20
2023-06-24T00:12:20.351Z,38.54
2023-06-24T00:14:51.529Z,38.71
2023-06-24T00:17:18.174Z,38.67
2023-06-24T00:19:47.560Z,38.62
2023-06-24T00:22:15.889Z,38.56
2023-06-24T00:24:44.051Z,38.42
2023-06-24T00:27:11.169Z,38.44
2023-06-24T00:29:37.845Z,38.59
2023-06-24T00:32:04.739Z,38.62
2023-06-24T00:34:31.271Z,38.68
2023-06-24T00:36:57.794Z,38.59
2023-06-24T00:39:24.902Z,38.68
2023-06-24T00:41:51.580Z,38.40
2023-06-24T00:44:19.309Z,38.57
2023-06-24T00:46:46.344Z,38.40
2023-06-24T00:49:14.979Z,38.63
2023-06-24T00:51:48.476Z,38.60
2023-06-24T00:54:15.346Z,38.61
2023-06-24T00:56:43.890Z,38.41
2023-06-24T00:59:15.991Z,38.46
2023-06-24T01:01:42.710Z,38.35
2023-06-24T01:04:09.705Z,38.72
2023-06-24T01:06:37.397Z,38.61
2023-06-24T01:09:06.207Z,38.71
2023-06-24T01:11:33.301Z,38.62
2023-06-24T01:13:59.974Z,38.36
2023-06-24T01:16:43.443Z,38.41
2023-06-24T01:19:18.969Z,38.58
2023-06-24T01:22:27.363Z,38.56
2023-06-24T01:25:02.782Z,38.66
2023-06-24T01:27:38.752Z,38.71
2023-06-24T01:30:28.277Z,38.53
2023-06-24T01:33:05.784Z,38.62
2023-06-24T01:35:35.874Z,38.66
2023-06-24T01:38:08.063Z,38.60
2023-06-24T01:40:42.857Z,38.74
2023-06-24T01:43:10.902Z,38.86
2023-06-24T01:45:43.667Z,38.86
2023-06-24T01:48:29.531Z,38.83
2023-06-24T01:51:09.235Z,38.80
2023-06-24T01:53:41.130Z,38.87
2023-06-24T01:56:09.602Z,38.63
2023-06-24T01:58:37.081Z,38.63
2023-06-24T02:01:05.016Z,38.89
2023-06-24T02:03:33.957Z,38.88
2023-06-24T02:06:01.995Z,38.75
2023-06-24T02:08:35.343Z,38.63
2023-06-24T02:11:03.365Z,38.72
2023-06-24T02:13:33.492Z,38.91
2023-06-24T02:16:01.138Z,38.87
2023-06-24T02:18:28.698Z,38.83
2023-06-24T02:20:58.060Z,38.79
2023-06-24T02:23:25.022Z,38.79
2023-06-24T02:25:52.076Z,38.68
2023-06-24T02:28:19.748Z,38.90
2023-06-24T02:30:47.351Z,38.92
2023-06-24T02:33:14.112Z,38.71
2023-06-24T02:35:42.769Z,38.86
2023-06-24T02:38:09.942Z,38.96
2023-06-24T02:40:37.063Z,38.69
2023-06-24T02:43:03.597Z,38.88
2023-06-24T02:45:31.066Z,39.01
2023-06-24T02:47:59.523Z,38.94
2023-06-24T02:50:26.747Z,38.79
2023-06-24T02:52:53.628Z,38.74
2023-06-24T02:55:20.922Z,38.94
2023-06-24T02:57:48.734Z,38.88
2023-06-24T03:00:16.057Z,39.08
2023-06-24T03:02:44.327Z,39.25
2023-06-24T03:05:11.992Z,38.97
2023-06-24T03:07:39.669Z,39.11
2023-06-24T03:10:06.985Z,39.11
2023-06-24T03:12:33.997Z,38.85
2023-06-24T03:15:02.006Z,38.99
2023-06-24T03:17:29.097Z,39.14
2023-06-24T03:19:55.791Z,39.06
2023-06-24T03:22:23.485Z,39.06
2023-06-24T03:24:50.254Z,39.17
2023-06-24T03:27:16.908Z,39.05
2023-06-24T03:29:43.425Z,39.02
2023-06-24T03:32:09.922Z,39.08
2023-06-24T03:34:36.683Z,39.27
2023-06-24T03:37:05.358Z,39.16
2023-06-24T03:39:31.922Z,38.86
2023-06-24T03:41:58.611Z,38.97
2023-06-24T03:44:25.121Z,39.17
2023-06-24T03:46:51.759Z,39.14
2023-06-24T03:49:19.121Z,39.10
2023-06-24T03:51:45.738Z,39.18
2023-06-24T03:54:12.413Z,39.40
2023-06-24T03:56:39.301Z,39.03
2023-06-24T03:59:06.970Z,38.98
2023-06-24T04:01:33.949Z,39.09
2023-06-24T04:04:00.663Z,39.05
2023-06-24T04:06:27.338Z,39.07
2023-06-24T04:08:54.197Z,39.13
2023-06-24T04:11:20.691Z,39.38
2023-06-24T04:13:49.425Z,39.04
2023-06-24T04:16:16.193Z,39.22
2023-06-24T04:18:43.044Z,39.18
2023-06-24T04:21:09.670Z,39.23
2023-06-24T04:23:36.301Z,39.26
2023-06-24T04:26:03.148Z,39.16
2023-06-24T04:28:29.698Z,39.22
2023-06-24T04:30:57.350Z,39.27
2023-06-24T04:33:25.378Z,39.23
2023-06-24T04:35:52.622Z,39.30
2023-06-24T04:38:19.632Z,39.20
2023-06-24T04:40:46.559Z,39.11
2023-06-24T04:43:13.132Z,39.19
2023-06-24T04:45:39.736Z,39.14
2023-06-24T04:48:06.641Z,39.06
2023-06-24T04:50:33.464Z,38.97
2023-06-24T04:53:02.903Z,39.25
2023-06-24T04:55:31.104Z,39.23
2023-06-24T04:57:57.630Z,39.47
2023-06-24T05:00:25.433Z,39.60
2023-06-24T05:02:53.072Z,39.35
2023-06-24T05:05:21.670Z,39.66
2023-06-24T05:07:48.629Z,39.78
2023-06-24T05:10:15.560Z,39.70
2023-06-24T05:12:42.543Z,39.81
2023-06-24T05:15:09.432Z,40.23
2023-06-24T05:17:36.067Z,40.23
2023-06-24T05:20:04.054Z,40.34
2023-06-24T05:22:30.692Z,40.73
2023-06-24T05:24:57.244Z,40.63
2023-06-24T05:27:23.896Z,40.49
2023-06-24T05:29:50.487Z,40.55
2023-06-24T05:32:18.583Z,40.69
2023-06-24T05:34:45.188Z,40.98
2023-06-24T05:37:11.767Z,40.91
2023-06-24T05:39:38.456Z,40.69
2023-06-24T05:42:05.265Z,40.90
2023-06-24T05:44:32.411Z,41.08
2023-06-24T05:46:58.977Z,41.42
2023-06-24T05:49:25.535Z,41.46
2023-06-24T05:51:52.077Z,41.49
2023-06-24T05:54:18.628Z,41.67
2023-06-24T05:56:45.164Z,41.68
2023-06-24T05:59:11.709Z,41.81
2023-06-24T06:01:38.410Z,41.80
2023-06-24T06:04:05.133Z,41.73
2023-06-24T06:06:31.707Z,41.84
2023-06-24T06:08:58.818Z,42.16
2023-06-24T06:11:25.482Z,41.97
2023-06-24T06:13:53.527Z,42.24
2023-06-24T06:16:20.069Z,42.27
2023-06-24T06:18:46.649Z,42.49
2023-06-24T06:21:13.187Z,42.67
2023-06-24T06:23:39.728Z,42.89
2023-06-24T06:26:06.553Z,42.80
2023-06-24T06:28:33.152Z,43.11
2023-06-24T06:30:59.769Z,43.33
2023-06-24T06:33:26.370Z,43.18
2023-06-24T06:35:53.112Z,43.41
2023-06-24T06:38:19.633Z,43.63
2023-06-24T06:40:46.417Z,43.30
2023-06-24T06:43:12.937Z,43.60
2023-06-24T06:48:09.720Z,43.64
2023-06-24T06:50:36.848Z,43.60
2023-06-24T06:53:03.495Z,43.97
2023-06-24T06:55:30.593Z,44.05
2023-06-24T06:57:57.340Z,44.13
2023-06-24T07:00:24.054Z,44.04
2023-06-24T07:02:50.635Z,44.07
2023-06-24T07:05:17.252Z,44.72
2023-06-24T07:07:46.344Z,44.48
2023-06-24T07:10:13.529Z,44.61
2023-06-24T07:12:41.050Z,44.40
2023-06-24T07:15:08.468Z,44.71
2023-06-24T07:17:35.671Z,44.81
2023-06-24T07:20:02.368Z,44.90
2023-06-24T07:22:28.981Z,44.75
2023-06-24T07:24:57.294Z,44.91
2023-06-24T07:27:24.271Z,45.01
2023-06-24T07:29:50.835Z,44.96
2023-06-24T07:32:17.351Z,44.82
2023-06-24T07:34:43.866Z,45.33
2023-06-24T07:37:22.754Z,44.93
2023-06-24T07:39:50.455Z,45.11
2023-06-24T07:42:19.924Z,45.25
2023-06-24T07:44:47.209Z,44.97
2023-06-24T07:47:13.880Z,45.06
2023-06-24T07:49:40.520Z,44.99
2023-06-24T07:52:07.607Z,45.24
2023-06-24T07:54:35.035Z,45.00
2023-06-24T07:57:01.644Z,45.08
2023-06-24T07:59:28.279Z,44.96
2023-06-24T08:01:54.829Z,44.93
2023-06-24T08:04:21.544Z,45.15
2023-06-24T08:06:48.293Z,45.50
2023-06-24T08:09:17.783Z,44.99
2023-06-24T08:11:45.053Z,45.31
2023-06-24T08:14:11.704Z,44.87
2023-06-24T08:16:38.794Z,45.07
2023-06-24T08:19:05.398Z,45.14
2023-06-24T08:21:32.005Z,45.02
2023-06-24T08:23:58.601Z,45.25
2023-06-24T08:26:25.141Z,45.52
2023-06-24T08:28:51.677Z,45.76
2023-06-24T08:31:18.352Z,45.51
2023-06-24T08:33:48.604Z,45.44
2023-06-24T08:36:15.356Z,45.37
2023-06-24T08:38:41.891Z,45.42
2023-06-24T08:41:08.639Z,45.42
2023-06-24T08:43:35.464Z,45.37
2023-06-24T08:46:02.236Z,45.51
2023-06-24T08:48:31.188Z,45.77
2023-06-24T08:50:59.697Z,45.95
2023-06-24T08:53:28.253Z,45.92
2023-06-24T08:55:55.345Z,45.95
2023-06-24T08:58:22.721Z,45.72
2023-06-24T09:00:49.309Z,46.03
2023-06-24T09:03:15.951Z,45.81
2023-06-24T09:05:42.672Z,45.81
2023-06-24T09:08:09.205Z,45.72
2023-06-24T09:10:37.610Z,45.69
2023-06-24T09:13:05.953Z,45.95
2023-06-24T09:15:33.838Z,45.99
2023-06-24T09:18:01.567Z,45.97
2023-06-24T09:20:28.939Z,46.21
2023-06-24T09:23:04.857Z,46.12
2023-06-24T09:25:31.878Z,46.19
2023-06-24T09:28:02.133Z,47.21
2023-06-24T09:30:28.617Z,48.95
2023-06-24T09:32:56.234Z,49.25
2023-06-24T09:35:24.997Z,49.12
2023-06-24T09:37:55.790Z,49.84
2023-06-24T09:40:23.212Z,50.12
2023-06-24T09:42:57.707Z,51.65
2023-06-24T09:45:26.246Z,51.25
2023-06-24T09:47:53.739Z,50.95
2023-06-24T09:50:21.112Z,50.75
2023-06-24T09:52:49.677Z,50.49
2023-06-24T09:55:18.701Z,50.18
2023-06-24T09:57:52.294Z,49.88
2023-06-24T10:00:23.480Z,49.86
2023-06-24T10:02:54.716Z,49.52
2023-06-24T10:05:21.627Z,49.37
2023-06-24T10:07:48.814Z,49.33
2023-06-24T10:10:15.805Z,49.11
2023-06-24T10:12:42.360Z,48.81
2023-06-24T10:15:09.416Z,48.60
2023-06-24T10:17:36.068Z,48.61
2023-06-24T10:20:07.403Z,48.51
2023-06-24T10:22:34.508Z,47.85
2023-06-24T10:25:02.928Z,47.46
2023-06-24T10:27:33.229Z,47.31
2023-06-24T10:30:03.811Z,47.33
2023-06-24T10:32:42.604Z,46.97
2023-06-24T10:35:23.822Z,47.08
2023-06-24T10:38:01.644Z,46.88
2023-06-24T10:40:43.282Z,47.05
2023-06-24T10:43:24.947Z,47.26
2023-06-24T10:46:00.176Z,46.97
2023-06-24T10:48:27.385Z,46.72
2023-06-24T10:50:54.075Z,46.62
2023-06-24T10:53:23.215Z,46.54
2023-06-24T10:55:49.934Z,46.47
2023-06-24T10:58:17.039Z,46.32
2023-06-24T11:00:45.064Z,46.18
2023-06-24T11:03:13.437Z,46.40
2023-06-24T11:05:45.008Z,46.22
2023-06-24T11:08:12.001Z,46.17
2023-06-24T11:10:49.678Z,45.98
2023-06-24T11:13:21.014Z,46.12
2023-06-24T11:15:47.604Z,46.12
2023-06-24T11:18:14.156Z,46.14
2023-06-24T11:20:41.606Z,46.07
2023-06-24T11:23:12.310Z,45.98
2023-06-24T11:25:43.860Z,45.75
2023-06-24T11:28:22.166Z,45.81
2023-06-24T11:30:49.504Z,45.61
2023-06-24T11:33:28.166Z,45.46
2023-06-24T11:35:54.794Z,45.65
2023-06-24T11:38:21.315Z,45.36
2023-06-24T11:40:49.922Z,45.50
2023-06-24T11:43:16.524Z,45.35
2023-06-24T11:45:43.027Z,45.47
2023-06-24T11:48:09.582Z,45.00
2023-06-24T11:50:38.154Z,45.13
2023-06-24T11:53:06.023Z,45.09
2023-06-24T11:55:33.131Z,44.84
2023-06-24T11:58:06.118Z,44.80
2023-06-24T12:00:44.964Z,44.68
2023-06-24T12:03:13.257Z,44.78
2023-06-24T12:05:45.968Z,44.88
2023-06-24T12:08:17.625Z,44.84
2023-06-24T12:10:46.124Z,44.64
2023-06-24T12:13:13.203Z,44.85
2023-06-24T12:15:39.761Z,44.83
2023-06-24T12:18:06.865Z,44.80
2023-06-24T12:20:37.814Z,44.87
2023-06-24T12:23:05.450Z,44.87
2023-06-24T12:25:32.144Z,44.78
2023-06-24T12:28:00.717Z,45.04
2023-06-24T12:30:27.819Z,45.05
2023-06-24T12:32:54.465Z,45.16
2023-06-24T12:35:21.335Z,45.42
2023-06-24T12:37:48.964Z,45.52
2023-06-24T12:40:15.545Z,45.17
2023-06-24T12:42:42.116Z,45.70
2023-06-24T12:45:09.161Z,45.43
2023-06-24T12:47:35.863Z,45.58
2023-06-24T12:50:02.483Z,45.36
2023-06-24T12:52:29.078Z,45.44
2023-06-24T12:54:55.621Z,45.59
2023-06-24T12:57:22.175Z,45.64
2023-06-24T12:59:48.859Z,45.52
2023-06-24T13:02:15.375Z,45.26
2023-06-24T13:04:41.923Z,45.30
2023-06-24T13:07:10.773Z,45.40
2023-06-24T13:09:37.543Z,45.35
2023-06-24T13:12:04.995Z,45.41
2023-06-24T13:14:31.646Z,45.27
2023-06-24T13:16:58.212Z,45.00
2023-06-24T13:19:24.921Z,44.93
2023-06-24T13:21:51.619Z,44.88
2023-06-24T13:24:18.278Z,44.81
2023-06-24T13:26:45.798Z,45.02
2023-06-24T13:29:12.674Z,45.12
2023-06-24T13:31:39.302Z,44.92
2023-06-24T13:34:06.003Z,44.94
2023-06-24T13:36:36.263Z,44.94
2023-06-24T13:39:07.722Z,44.64
2023-06-24T13:41:35.014Z,44.84
2023-06-24T13:44:02.953Z,44.52
2023-06-24T13:46:31.273Z,44.79
2023-06-24T13:48:59.517Z,44.61
2023-06-24T13:51:26.443Z,44.45
2023-06-24T13:53:55.516Z,44.49
2023-06-24T13:56:24.533Z,44.55
2023-06-24T13:58:52.591Z,44.38
2023-06-24T14:01:19.884Z,44.44
2023-06-24T14:03:46.988Z,44.21
2023-06-24T14:06:18.234Z,44.62
2023-06-24T14:08:45.016Z,44.39
2023-06-24T14:11:12.086Z,44.45
2023-06-24T14:13:38.719Z,44.32
2023-06-24T14:16:05.540Z,43.97
2023-06-24T14:18:33.020Z,43.97
2023-06-24T14:21:01.009Z,43.90
2023-06-24T14:23:28.476Z,43.62
2023-06-24T14:25:55.464Z,43.61
2023-06-24T14:28:22.415Z,43.53
2023-06-24T14:30:49.219Z,43.50
2023-06-24T14:33:16.425Z,43.53
2023-06-24T14:35:43.118Z,43.40
2023-06-24T14:38:09.676Z,43.65
2023-06-24T14:40:36.483Z,43.46
2023-06-24T14:43:03.244Z,43.39
2023-06-24T14:45:30.031Z,43.20
2023-06-24T14:47:58.198Z,43.11
2023-06-24T14:50:25.301Z,43.04
2023-06-24T14:52:51.872Z,43.15
2023-06-24T14:55:18.540Z,42.83
2023-06-24T14:57:45.080Z,42.80
2023-06-24T15:00:13.007Z,42.85
2023-06-24T15:02:39.778Z,43.00
2023-06-24T15:05:06.847Z,42.90
2023-06-24T15:07:33.540Z,42.83
2023-06-24T15:10:00.160Z,42.96
2023-06-24T15:12:26.965Z,42.88
2023-06-24T15:14:53.494Z,43.22
2023-06-24T15:17:20.362Z,43.07
2023-06-24T15:19:47.978Z,42.99
2023-06-24T15:22:14.518Z,43.06
2023-06-24T15:24:41.159Z,42.91
2023-06-24T15:27:07.711Z,42.87
2023-06-24T15:29:35.415Z,42.79
2023-06-24T15:32:02.545Z,42.80
2023-06-24T15:34:29.551Z,42.80
2023-06-24T15:36:56.182Z,42.83
2023-06-24T15:39:22.940Z,42.79
2023-06-24T15:41:51.148Z,42.61
2023-06-24T15:44:18.567Z,42.51
2023-06-24T15:46:48.254Z,42.59
2023-06-24T15:49:16.423Z,42.52
2023-06-24T15:51:43.489Z,42.51
2023-06-24T15:54:10.234Z,42.48
2023-06-24T15:56:36.836Z,42.53
2023-06-24T15:59:03.551Z,42.35
2023-06-24T16:01:30.396Z,42.40
2023-06-24T16:03:57.136Z,42.08
2023-06-24T16:06:24.560Z,42.13
2023-06-24T16:08:51.793Z,42.36
2023-06-24T16:11:18.798Z,42.11
2023-06-24T16:13:45.424Z,42.01
2023-06-24T16:16:12.417Z,41.88
2023-06-24T16:18:39.418Z,42.14
2023-06-24T16:21:06.461Z,42.35
2023-06-24T16:23:33.125Z,42.29
2023-06-24T16:26:00.648Z,41.81
2023-06-24T16:28:27.275Z,41.97
2023-06-24T16:30:53.915Z,42.04
2023-06-24T16:33:20.518Z,41.98
2023-06-24T16:35:47.073Z,41.82
2023-06-24T16:38:13.636Z,42.02
2023-06-24T16:40:40.152Z,41.86
2023-06-24T16:43:06.665Z,42.09
2023-06-24T16:45:33.254Z,42.16
2023-06-24T16:48:00.063Z,42.00
2023-06-24T16:50:26.676Z,42.16
2023-06-24T16:52:53.260Z,41.96
2023-06-24T16:55:19.908Z,41.73
2023-06-24T16:57:46.578Z,41.97
2023-06-24T17:00:14.093Z,42.06
2023-06-24T17:02:42.461Z,41.72
2023-06-24T17:05:09.260Z,41.96
2023-06-24T17:07:35.906Z,41.74
2023-06-24T17:10:03.730Z,41.48
2023-06-24T17:12:30.319Z,41.89
2023-06-24T17:14:56.835Z,41.74
2023-06-24T17:17:23.403Z,41.55
2023-06-24T17:19:49.982Z,41.81
2023-06-24T17:22:16.636Z,41.81
2023-06-24T17:24:43.251Z,41.43
2023-06-24T17:27:09.809Z,41.43
2023-06-24T17:29:37.363Z,41.40
2023-06-24T17:32:04.189Z,41.44
2023-06-24T17:34:30.718Z,41.39
2023-06-24T17:36:57.242Z,41.18
2023-06-24T17:39:25.411Z,41.25
2023-06-24T17:41:54.195Z,41.27
2023-06-24T17:44:20.723Z,41.16
2023-06-24T17:46:47.277Z,41.17
2023-06-24T17:49:13.897Z,41.20
2023-06-24T17:51:40.448Z,41.18
2023-06-24T17:54:06.983Z,40.81
2023-06-24T17:56:35.065Z,41.03
2023-06-24T17:59:01.784Z,40.71
2023-06-24T18:01:30.405Z,40.50
2023-06-24T18:03:57.290Z,40.59
2023-06-24T18:06:24.241Z,40.71
2023-06-24T18:08:50.989Z,41.02
2023-06-24T18:11:17.555Z,40.56
2023-06-24T18:13:44.057Z,40.47
2023-06-24T18:16:10.713Z,40.42
2023-06-24T18:18:37.224Z,40.30
2023-06-24T18:21:03.814Z,40.48
2023-06-24T18:23:30.422Z,40.30
2023-06-24T18:25:56.949Z,40.63
2023-06-24T18:28:23.489Z,40.56
2023-06-24T18:30:50.057Z,40.53
2023-06-24T18:33:16.579Z,40.57
2023-06-24T18:35:43.093Z,40.57
2023-06-24T18:38:10.315Z,40.22
2023-06-24T18:40:37.198Z,40.31
2023-06-24T18:43:05.669Z,40.07
2023-06-24T18:45:32.232Z,40.12
2023-06-24T18:47:58.829Z,40.37
2023-06-24T18:50:25.520Z,40.14
2023-06-24T18:52:52.039Z,40.07
2023-06-24T18:55:18.711Z,40.44
2023-06-24T18:57:45.356Z,40.06
2023-06-24T19:00:12.561Z,40.42
2023-06-24T19:02:39.216Z,40.04
2023-06-24T19:05:06.002Z,40.03
2023-06-24T19:07:32.573Z,39.96
2023-06-24T19:10:00.010Z,40.18
2023-06-24T19:12:27.764Z,40.02
2023-06-24T19:14:54.264Z,40.32
2023-06-24T19:17:20.825Z,39.99
2023-06-24T19:19:47.348Z,39.86
2023-06-24T19:22:13.871Z,39.90
2023-06-24T19:24:40.469Z,40.25
2023-06-24T19:27:07.074Z,39.95
2023-06-24T19:29:33.643Z,39.84
2023-06-24T19:32:00.231Z,40.27
2023-06-24T19:34:26.897Z,39.89
2023-06-24T19:36:55.934Z,39.91
2023-06-24T19:39:22.535Z,40.13
2023-06-24T19:41:49.091Z,39.96
2023-06-24T19:44:15.624Z,39.86
2023-06-24T19:46:42.859Z,39.83
2023-06-24T19:49:10.857Z,40.24
2023-06-24T19:51:37.577Z,39.84
2023-06-24T19:54:04.300Z,39.77
2023-06-24T19:56:30.896Z,40.18
2023-06-24T19:58:57.407Z,39.96
2023-06-24T20:01:24.027Z,40.00
2023-06-24T20:03:50.661Z,40.16
2023-06-24T20:06:17.217Z,40.09
2023-06-24T20:08:43.917Z,40.72
2023-06-24T20:11:11.066Z,41.13
2023-06-24T20:13:37.693Z,40.79
2023-06-24T20:16:04.467Z,41.12
2023-06-24T20:18:31.038Z,40.86
2023-06-24T20:20:57.696Z,41.10
2023-06-24T20:23:24.355Z,41.07
2023-06-24T20:25:50.928Z,40.61
2023-06-24T20:28:17.485Z,40.87
2023-06-24T20:30:44.146Z,40.82
2023-06-24T20:33:10.669Z,40.76
2023-06-24T20:35:37.644Z,40.83
2023-06-24T20:38:04.379Z,40.62
2023-06-24T20:40:30.978Z,40.69
2023-06-24T20:42:57.805Z,40.88
2023-06-24T20:45:24.322Z,40.87
2023-06-24T20:47:50.914Z,40.94
2023-06-24T20:50:17.578Z,40.57
2023-06-24T20:52:44.105Z,40.47
2023-06-24T20:55:10.719Z,40.56
2023-06-24T20:57:37.444Z,40.27
2023-06-24T21:00:04.576Z,40.28
2023-06-24T21:02:34.050Z,40.26
2023-06-24T21:05:01.556Z,40.45
2023-06-24T21:07:28.243Z,40.50
2023-06-24T21:09:54.819Z,40.49
2023-06-24T21:12:21.407Z,40.14
2023-06-24T21:14:48.011Z,40.41
2023-06-24T21:17:14.617Z,40.29
2023-06-24T21:19:41.174Z,40.15
2023-06-24T21:22:07.866Z,40.21
2023-06-24T21:24:34.364Z,40.07
2023-06-24T21:27:00.898Z,40.44
2023-06-24T21:29:27.459Z,40.06
2023-06-24T21:31:54.013Z,40.41
2023-06-24T21:34:20.559Z,40.01
2023-06-24T21:36:47.116Z,40.37
2023-06-24T21:39:13.676Z,39.92
2023-06-24T21:41:41.799Z,40.09
2023-06-24T21:44:08.419Z,40.17
2023-06-24T21:46:34.992Z,40.42
2023-06-24T21:49:02.614Z,40.12
2023-06-24T21:51:29.147Z,40.30
2023-06-24T21:53:55.707Z,39.93
2023-06-24T21:56:22.227Z,40.32
2023-06-24T21:58:48.764Z,40.19
2023-06-24T22:01:15.509Z,40.26
2023-06-24T22:03:42.085Z,40.40
2023-06-24T22:06:08.653Z,40.09
2023-06-24T22:08:35.156Z,39.95
2023-06-24T22:11:01.719Z,40.00
2023-06-24T22:13:28.232Z,40.34
2023-06-24T22:15:54.855Z,40.34
2023-06-24T22:18:21.405Z,40.12
2023-06-24T22:20:48.004Z,40.29
2023-06-24T22:23:14.551Z,40.10
2023-06-24T22:25:41.068Z,40.02
2023-06-24T22:28:07.615Z,39.99
2023-06-24T22:30:34.330Z,40.07
2023-06-24T22:33:01.259Z,40.18
2023-06-24T22:35:27.847Z,40.00
2023-06-24T22:37:54.552Z,40.27
2023-06-24T22:40:21.114Z,40.03
2023-06-24T22:42:47.624Z,40.08
2023-06-24T22:45:14.297Z,40.41
2023-06-24T22:47:41.045Z,40.29
2023-06-24T22:50:09.746Z,40.32
2023-06-24T22:52:37.148Z,40.00
2023-06-24T22:55:04.375Z,39.98
2023-06-24T22:57:31.137Z,40.16
2023-06-24T22:59:57.759Z,40.38
2023-06-24T23:02:24.593Z,40.40
2023-06-24T23:04:51.550Z,39.99
2023-06-24T23:07:18.416Z,40.03
2023-06-24T23:09:45.240Z,40.38
2023-06-24T23:12:12.429Z,40.29
2023-06-24T23:14:40.794Z,40.37
2023-06-24T23:17:07.871Z,40.18
2023-06-24T23:19:35.079Z,40.38
2023-06-24T23:22:03.599Z,40.44
2023-06-24T23:24:32.461Z,39.99
2023-06-24T23:27:01.540Z,40.29
2023-06-24T23:29:28.188Z,40.12
2023-06-24T23:31:54.866Z,40.38
2023-06-24T23:34:21.735Z,40.49
2023-06-24T23:36:49.198Z,40.21
2023-06-24T23:39:16.013Z,40.70
2023-06-24T23:41:43.660Z,40.41
2023-06-24T23:44:10.796Z,40.25
2023-06-24T23:46:37.343Z,40.27
2023-06-24T23:49:04.075Z,40.57
2023-06-24T23:51:30.633Z,40.47
2023-06-24T23:53:57.222Z,40.47
2023-06-24T23:56:23.952Z,40.48
2023-06-24T23:58:50.489Z,40.53
